Time;durP1;ratioP1;P1;durP2;ratioP2;P2;SDS_P1;SDS_P2;PMS_P1;PMS_P2;Temp;Humidity;BMP_temperature;BMP_pressure;BME280_temperature;BME280_humidity;BME280_pressure;Samples;Min_cycle;Max_cycle;Signal;HPM_P1;HPM_P2
2022/07/22 00:00:12;;;;;;;0.00;0.00;;;;;;;19.74;64.08;98107.44;5101009;28;20078;-61
2022/07/22 00:02:41;;;;;;;0.00;0.00;;;;;;;19.79;64.00;98100.66;5118571;28;20048;-61
2022/07/22 00:05:10;;;;;;;0.00;0.00;;;;;;;19.83;64.01;98099.34;5118779;28;20392;-61
2022/07/22 00:07:38;;;;;;;0.00;0.00;;;;;;;19.81;64.24;98101.34;5100705;28;20335;-60
2022/07/22 00:10:08;;;;;;;0.00;0.00;;;;;;;19.80;63.37;98091.66;5118891;28;20296;-61
2022/07/22 00:12:35;;;;;;;0.00;0.00;;;;;;;19.91;62.87;98095.91;5118450;28;20044;-61
2022/07/22 00:15:03;;;;;;;0.00;0.00;;;;;;;19.97;62.68;98089.97;5118358;28;20046;-60
2022/07/22 00:17:32;;;;;;;0.00;0.00;;;;;;;19.95;62.73;98094.59;5117548;28;20066;-61
2022/07/22 00:20:01;;;;;;;0.00;0.00;;;;;;;19.91;62.69;98091.44;5118271;28;20431;-61
2022/07/22 00:22:28;;;;;;;0.00;0.00;;;;;;;19.90;62.63;98094.25;5118256;28;20067;-61
2022/07/22 00:24:56;;;;;;;0.00;0.00;;;;;;;19.87;62.70;98097.22;5118072;28;20106;-61
2022/07/22 00:27:23;;;;;;;0.00;0.00;;;;;;;19.85;62.62;98099.19;5117852;28;20047;-61
2022/07/22 00:29:51;;;;;;;0.00;0.00;;;;;;;19.84;62.44;98093.03;5100232;28;20051;-61
2022/07/22 00:32:19;;;;;;;0.00;0.00;;;;;;;19.84;62.33;98095.69;5100062;28;20043;-61
2022/07/22 00:34:47;;;;;;;0.00;0.00;;;;;;;19.86;62.36;98096.38;5118063;28;20307;-61
2022/07/22 00:37:16;;;;;;;0.00;0.00;;;;;;;19.90;62.46;98099.59;5118129;28;20039;-61
2022/07/22 00:39:44;;;;;;;0.00;0.00;;;;;;;19.87;62.35;98098.06;5100128;28;20438;-60
2022/07/22 00:42:11;;;;;;;0.00;0.00;;;;;;;19.89;62.16;98095.22;5117763;28;20315;-61
2022/07/22 00:44:39;;;;;;;0.00;0.00;;;;;;;19.87;62.41;98098.06;5117806;28;20101;-61
2022/07/22 00:47:08;;;;;;;0.00;0.00;;;;;;;19.86;62.24;98096.38;5100013;28;20044;-61
2022/07/22 00:49:35;;;;;;;0.00;0.00;;;;;;;19.89;62.10;98096.06;5118047;28;20135;-61
2022/07/22 00:52:04;;;;;;;0.00;0.00;;;;;;;19.90;62.05;98091.56;5117693;28;20062;-61
2022/07/22 00:54:33;;;;;;;0.00;0.00;;;;;;;19.82;63.05;98095.00;5117621;28;20075;-61
2022/07/22 00:57:01;;;;;;;0.00;0.00;;;;;;;19.70;63.56;98088.25;5099913;28;20044;-62
2022/07/22 00:59:28;;;;;;;0.00;0.00;;;;;;;19.60;64.01;98094.66;5099908;28;20074;-60
2022/07/22 01:01:56;;;;;;;0.00;0.00;;;;;;;19.47;64.67;98091.53;5099697;28;20055;-61
2022/07/22 01:04:25;;;;;;;0.00;0.00;;;;;;;19.33;65.14;98098.19;5117924;28;20039;-60
2022/07/22 01:06:56;;;;;;;0.00;0.00;;;;;;;19.30;64.95;98097.63;5099843;28;20051;-61
2022/07/22 01:09:24;;;;;;;0.00;0.00;;;;;;;19.27;64.84;98098.78;5100073;28;20051;-61
2022/07/22 01:11:53;;;;;;;0.00;0.00;;;;;;;19.19;65.54;98096.03;5117562;28;20118;-61
2022/07/22 01:14:21;;;;;;;0.00;0.00;;;;;;;19.14;65.61;98095.66;5099338;28;20055;-61
2022/07/22 01:16:49;;;;;;;0.00;0.00;;;;;;;19.02;66.63;98110.16;5082862;28;20101;-61
2022/07/22 01:19:17;;;;;;;0.00;0.00;;;;;;;18.74;67.95;98112.97;5099404;28;20050;-61
2022/07/22 01:21:46;;;;;;;0.00;0.00;;;;;;;18.47;68.76;98134.25;5117193;28;20356;-61
2022/07/22 01:24:14;;;;;;;0.00;0.00;;;;;;;18.75;66.70;98138.69;5117276;28;20063;-61
2022/07/22 01:26:41;;;;;;;0.00;0.00;;;;;;;19.12;65.13;98134.13;5099072;28;20055;-61
2022/07/22 01:29:09;;;;;;;0.00;0.00;;;;;;;19.23;65.04;98139.28;5098935;28;20044;-60
2022/07/22 01:31:37;;;;;;;0.00;0.00;;;;;;;19.23;65.08;98148.09;5117562;28;20104;-61
2022/07/22 01:34:04;;;;;;;0.00;0.00;;;;;;;19.40;64.15;98143.78;5116999;28;20097;-61
2022/07/22 01:36:36;;;;;;;0.00;0.00;;;;;;;19.45;64.35;98131.69;5098812;28;20427;-61
2022/07/22 01:39:05;;;;;;;0.00;0.00;;;;;;;19.52;64.23;98130.09;5099210;28;20039;-61
2022/07/22 01:41:33;;;;;;;0.00;0.00;;;;;;;19.57;64.15;98130.47;5099152;28;20126;-61
2022/07/22 01:44:01;;;;;;;0.00;0.00;;;;;;;19.57;64.40;98154.50;5099168;28;20488;-61
2022/07/22 01:46:29;;;;;;;0.00;0.00;;;;;;;19.62;63.65;98141.56;5099205;28;20063;-60
2022/07/22 01:48:58;;;;;;;0.00;0.00;;;;;;;19.68;63.68;98138.25;5098975;28;20042;-62
2022/07/22 01:51:28;;;;;;;0.00;0.00;;;;;;;19.66;63.84;98134.91;5099131;28;20047;-61
2022/07/22 01:53:55;;;;;;;0.00;0.00;;;;;;;19.62;63.90;98136.22;5099203;28;20047;-60
2022/07/22 01:56:24;;;;;;;0.00;0.00;;;;;;;19.65;63.97;98117.22;5116865;28;20408;-60
2022/07/22 01:58:52;;;;;;;0.00;0.00;;;;;;;19.62;65.37;98128.22;5098925;28;20423;-61
2022/07/22 02:01:30;;;;;;;0.00;0.00;;;;;;;19.36;65.52;98137.91;5098799;28;20040;-61
2022/07/22 02:04:02;;;;;;;0.00;0.00;;;;;;;19.17;65.99;98150.53;5098994;28;20144;-61
2022/07/22 02:06:31;;;;;;;0.00;0.00;;;;;;;19.13;66.10;98149.97;5116863;28;20334;-61
2022/07/22 02:08:59;;;;;;;0.00;0.00;;;;;;;19.07;66.45;98141.72;5099058;28;20043;-61
2022/07/22 02:11:36;;;;;;;0.00;0.00;;;;;;;18.96;67.63;98142.78;5098876;28;20413;-60
2022/07/22 02:14:04;;;;;;;0.00;0.00;;;;;;;18.77;69.05;98148.19;5098916;28;20044;-62
2022/07/22 02:16:32;;;;;;;0.00;0.00;;;;;;;18.45;70.01;98133.53;5098564;28;20108;-61
2022/07/22 02:19:00;;;;;;;0.00;0.00;;;;;;;18.37;70.49;98126.28;5098545;28;20453;-61
2022/07/22 02:21:27;;;;;;;0.00;0.00;;;;;;;18.39;70.56;98131.47;5098623;28;20078;-61
2022/07/22 02:24:00;;;;;;;0.00;0.00;;;;;;;18.28;71.18;98129.78;5098349;28;20375;-61
2022/07/22 02:26:27;;;;;;;0.00;0.00;;;;;;;18.01;72.40;98137.69;5098435;28;20044;-61
2022/07/22 02:28:56;;;;;;;0.00;0.00;;;;;;;17.85;73.30;98140.09;5116744;28;20055;-61
2022/07/22 02:31:24;;;;;;;0.00;0.00;;;;;;;17.83;73.35;98139.38;5099171;28;20051;-62
2022/07/22 02:33:52;;;;;;;0.00;0.00;;;;;;;17.80;73.65;98138.81;5099010;28;20047;-61
2022/07/22 02:36:20;;;;;;;0.00;0.00;;;;;;;17.80;74.03;98152.13;5098232;28;20044;-64
2022/07/22 02:38:49;;;;;;;0.00;0.00;;;;;;;17.77;73.87;98139.09;5098477;28;20177;-64
2022/07/22 02:41:16;;;;;;;0.00;0.00;;;;;;;17.82;73.77;98137.72;5101363;28;20051;-64
2022/07/22 02:43:53;;;;;;;0.00;0.00;;;;;;;17.75;74.48;98147.22;5102428;28;20455;-64
2022/07/22 02:46:23;;;;;;;0.00;0.00;;;;;;;17.46;75.03;98143.69;5102636;28;20066;-63
2022/07/22 02:48:51;;;;;;;0.00;0.00;;;;;;;17.60;74.39;98140.63;5101910;28;20058;-64
2022/07/22 02:51:21;;;;;;;0.00;0.00;;;;;;;17.53;75.45;98147.47;5085033;28;20385;-63
2022/07/22 02:53:51;;;;;;;0.00;0.00;;;;;;;17.34;76.42;98147.47;5102027;28;20331;-64
2022/07/22 02:56:20;;;;;;;0.00;0.00;;;;;;;17.40;76.33;98141.59;5102024;28;20054;-63
2022/07/22 02:58:47;;;;;;;0.00;0.00;;;;;;;17.42;76.09;98144.94;5101944;28;20060;-63
2022/07/22 03:01:15;;;;;;;0.00;0.00;;;;;;;17.42;76.06;98147.59;5101813;28;20364;-63
2022/07/22 03:03:53;;;;;;;0.00;0.00;;;;;;;17.42;76.78;98143.13;5101966;28;20051;-63
2022/07/22 03:06:22;;;;;;;0.00;0.00;;;;;;;17.42;77.80;98134.31;5101832;28;20050;-64
2022/07/22 03:09:04;;;;;;;0.00;0.00;;;;;;;17.39;77.84;98137.22;5101688;28;20040;-63
2022/07/22 03:11:33;;;;;;;0.00;0.00;;;;;;;17.27;78.24;98128.56;5101231;28;20059;-64
2022/07/22 03:14:01;;;;;;;0.00;0.00;;;;;;;17.27;78.40;98127.69;5101589;28;20089;-63
2022/07/22 03:16:29;;;;;;;0.00;0.00;;;;;;;17.33;78.92;98127.16;5101466;28;20044;-63
2022/07/22 03:18:58;;;;;;;0.00;0.00;;;;;;;17.52;78.80;98128.00;5101568;28;20047;-64
2022/07/22 03:21:26;;;;;;;0.00;0.00;;;;;;;17.70;78.30;98130.84;5101454;28;20063;-64
2022/07/22 03:23:55;;;;;;;0.00;0.00;;;;;;;17.80;78.02;98139.66;5101559;28;20142;-64
2022/07/22 03:26:23;;;;;;;0.00;0.00;;;;;;;17.65;78.90;98130.38;5101119;28;20393;-63
2022/07/22 03:28:52;;;;;;;0.00;0.00;;;;;;;17.77;78.14;98129.28;5101138;28;20038;-63
2022/07/22 03:31:19;;;;;;;0.00;0.00;;;;;;;18.00;77.36;98125.38;5101284;28;20052;-64
2022/07/22 03:33:47;;;;;;;0.00;0.00;;;;;;;18.14;75.98;98132.06;5119170;28;20131;-63
2022/07/22 03:36:17;;;;;;;0.00;0.00;;;;;;;18.20;76.51;98135.00;5100857;28;20047;-64
2022/07/22 03:38:47;;;;;;;0.00;0.00;;;;;;;18.23;77.62;98136.53;5101135;28;20355;-63
2022/07/22 03:41:15;;;;;;;0.00;0.00;;;;;;;18.32;76.51;98144.50;5100770;28;20126;-64
2022/07/22 03:43:43;;;;;;;0.00;0.00;;;;;;;18.72;74.44;98145.09;5100604;28;20048;-64
2022/07/22 03:46:11;;;;;;;0.00;0.00;;;;;;;19.05;73.16;98152.53;5118870;28;20123;-63
2022/07/22 03:48:40;;;;;;;0.00;0.00;;;;;;;19.28;72.16;98153.84;5100988;28;20044;-63
2022/07/22 03:51:08;;;;;;;0.00;0.00;;;;;;;19.41;71.15;98159.66;5100736;28;20196;-63
2022/07/22 03:53:37;;;;;;;0.00;0.00;;;;;;;19.66;69.93;98163.44;5100895;28;20347;-64
2022/07/22 03:56:05;;;;;;;0.00;0.00;;;;;;;20.01;68.45;98158.09;5100709;28;20123;-63
2022/07/22 03:58:33;;;;;;;0.00;0.00;;;;;;;20.22;67.62;98161.28;5100845;28;20066;-64
2022/07/22 04:01:01;;;;;;;0.00;0.00;;;;;;;20.27;67.76;98161.69;5118719;28;20043;-64
2022/07/22 04:03:29;;;;;;;0.00;0.00;;;;;;;20.49;67.12;98163.84;5100690;28;20039;-63
2022/07/22 04:06:13;;;;;;;0.00;0.00;;;;;;;20.69;66.30;98170.66;5100538;28;20103;-64
2022/07/22 04:08:48;;;;;;;0.00;0.00;;;;;;;20.83;65.25;98171.88;5100649;28;20051;-63
2022/07/22 04:11:15;;;;;;;0.00;0.00;;;;;;;20.87;65.43;98167.91;5118615;28;20055;-63
2022/07/22 04:13:43;;;;;;;0.00;0.00;;;;;;;20.77;65.97;98177.91;5100676;28;20055;-64
2022/07/22 04:16:11;;;;;;;0.00;0.00;;;;;;;20.70;66.55;98175.84;5100357;28;20040;-64
2022/07/22 04:18:48;;;;;;;0.00;0.00;;;;;;;20.74;66.85;98169.19;5100862;28;20047;-63
2022/07/22 04:21:16;;;;;;;0.00;0.00;;;;;;;20.77;66.90;98167.19;5100404;28;20047;-63
2022/07/22 04:23:52;;;;;;;0.00;0.00;;;;;;;20.84;66.40;98162.91;5100344;28;20036;-63
2022/07/22 04:26:26;;;;;;;0.00;0.00;;;;;;;20.91;66.60;98163.94;5099672;28;20055;-64
2022/07/22 04:28:54;;;;;;;0.00;0.00;;;;;;;21.01;66.57;98162.00;5100187;28;20131;-64
2022/07/22 04:31:22;;;;;;;0.00;0.00;;;;;;;20.98;66.67;98164.97;5100131;28;20048;-63
2022/07/22 04:33:56;;;;;;;0.00;0.00;;;;;;;21.08;66.53;98161.19;5100312;28;20043;-64
2022/07/22 04:36:23;;;;;;;0.00;0.00;;;;;;;21.15;66.48;98166.75;5117894;28;20331;-63
2022/07/22 04:38:54;;;;;;;0.00;0.00;;;;;;;21.16;66.95;98168.41;5100225;28;20308;-64
2022/07/22 04:41:22;;;;;;;0.00;0.00;;;;;;;21.17;66.95;98176.28;5099889;28;20399;-64
2022/07/22 04:43:50;;;;;;;0.00;0.00;;;;;;;21.15;67.78;98172.94;5099937;28;20045;-63
2022/07/22 04:46:22;;;;;;;0.00;0.00;;;;;;;21.11;67.63;98162.72;5099825;28;20130;-64
2022/07/22 04:48:50;;;;;;;0.00;0.00;;;;;;;21.32;66.88;98185.38;5099832;28;20048;-64
2022/07/22 04:51:17;;;;;;;0.00;0.00;;;;;;;21.62;66.11;98174.09;5099946;28;20334;-63
2022/07/22 04:53:47;;;;;;;0.00;0.00;;;;;;;21.66;66.07;98172.81;5099954;28;20067;-63
2022/07/22 04:56:18;;;;;;;0.00;0.00;;;;;;;21.54;66.44;98170.56;5099688;28;20070;-64
2022/07/22 04:58:46;;;;;;;0.00;0.00;;;;;;;21.39;67.24;98170.34;5099721;28;20097;-63
2022/07/22 05:01:14;;;;;;;0.00;0.00;;;;;;;21.27;67.84;98168.97;5117570;28;20495;-63
2022/07/22 05:03:44;;;;;;;0.00;0.00;;;;;;;21.22;68.67;98168.63;5099385;28;20039;-63
2022/07/22 05:06:13;;;;;;;0.00;0.00;;;;;;;21.20;69.00;98178.63;5099455;28;20502;-64
2022/07/22 05:08:47;;;;;;;0.00;0.00;;;;;;;21.15;69.66;98185.47;5099610;28;20084;-64
2022/07/22 05:11:14;;;;;;;0.00;0.00;;;;;;;21.06;70.15;98179.25;5099549;28;20047;-64
2022/07/22 05:13:43;;;;;;;0.00;0.00;;;;;;;21.02;70.69;98177.06;5099566;28;20430;-64
2022/07/22 05:16:11;;;;;;;0.00;0.00;;;;;;;21.00;70.87;98177.22;5099285;28;20043;-63
2022/07/22 05:18:40;;;;;;;0.00;0.00;;;;;;;20.94;71.51;98190.38;5117420;28;20048;-63
2022/07/22 05:21:11;;;;;;;0.00;0.00;;;;;;;20.91;72.19;98174.63;5099344;28;20054;-63
2022/07/22 05:23:38;;;;;;;0.00;0.00;;;;;;;20.92;72.41;98173.66;5099376;28;20127;-63
2022/07/22 05:26:07;;;;;;;0.00;0.00;;;;;;;21.07;72.25;98175.59;5051648;28;20042;-64
2022/07/22 05:28:35;;;;;;;0.00;0.00;;;;;;;21.18;72.23;98180.63;5099368;28;20486;-63
2022/07/22 05:31:04;;;;;;;0.00;0.00;;;;;;;21.36;72.16;98180.53;5117134;28;20135;-65
2022/07/22 05:33:33;;;;;;;0.00;0.00;;;;;;;21.48;72.08;98182.78;5098280;28;20043;-63
2022/07/22 05:36:06;;;;;;;0.00;0.00;;;;;;;21.56;71.76;98187.28;5099210;28;20047;-63
2022/07/22 05:38:38;;;;;;;0.00;0.00;;;;;;;21.72;71.53;98192.75;5099226;28;20374;-63
2022/07/22 05:41:06;;;;;;;0.00;0.00;;;;;;;21.88;71.29;98188.22;5099354;28;20052;-63
2022/07/22 05:43:34;;;;;;;0.00;0.00;;;;;;;22.02;70.90;98184.91;5099309;28;20427;-63
2022/07/22 05:46:07;;;;;;;0.00;0.00;;;;;;;22.24;71.15;98196.81;5099189;28;20047;-63
2022/07/22 05:48:38;;;;;;;0.00;0.00;;;;;;;22.37;70.10;98191.81;5116668;28;20346;-63
2022/07/22 05:51:11;;;;;;;0.00;0.00;;;;;;;22.51;70.25;98188.47;5098875;28;20044;-64
2022/07/22 05:53:39;;;;;;;0.00;0.00;;;;;;;22.68;69.66;98190.94;5098990;28;20052;-63
2022/07/22 05:56:08;;;;;;;0.00;0.00;;;;;;;22.86;68.60;98186.22;5098935;28;20063;-63
2022/07/22 05:58:36;;;;;;;0.00;0.00;;;;;;;22.97;68.69;98195.72;5098834;28;20320;-63
2022/07/22 06:01:04;;;;;;;0.00;0.00;;;;;;;23.12;68.34;98180.66;5098515;28;20062;-63
2022/07/22 06:03:34;;;;;;;0.00;0.00;;;;;;;23.27;68.12;98174.34;5076367;28;20338;-63
2022/07/22 06:06:04;;;;;;;0.00;0.00;;;;;;;23.58;67.32;98169.00;5095162;28;20101;-63
2022/07/22 06:08:32;;;;;;;0.00;0.00;;;;;;;23.74;66.85;98166.25;5096506;28;20044;-63
2022/07/22 06:11:00;;;;;;;0.00;0.00;;;;;;;23.79;66.99;98161.19;5095585;28;20048;-63
2022/07/22 06:13:28;;;;;;;0.00;0.00;;;;;;;23.72;66.43;98165.59;5095475;28;20083;-63
2022/07/22 06:15:56;;;;;;;0.00;0.00;;;;;;;23.72;66.35;98152.16;5098453;28;20406;-63
2022/07/22 06:18:23;;;;;;;0.00;0.00;;;;;;;23.70;66.70;98158.75;5100369;28;20123;-63
2022/07/22 06:20:52;;;;;;;0.00;0.00;;;;;;;23.71;67.22;98150.50;5099550;28;20427;-62
2022/07/22 06:23:20;;;;;;;0.00;0.00;;;;;;;23.70;66.99;98143.44;5099431;28;20059;-62
2022/07/22 06:25:48;;;;;;;0.00;0.00;;;;;;;23.75;67.26;98145.59;5099190;28;20103;-62
2022/07/22 06:28:25;;;;;;;0.00;0.00;;;;;;;23.74;67.32;98147.44;5099400;28;20136;-63
2022/07/22 06:30:53;;;;;;;0.00;0.00;;;;;;;23.79;67.09;98147.75;5100632;28;20052;-63
2022/07/22 06:33:22;;;;;;;0.00;0.00;;;;;;;23.90;66.85;98149.19;5099032;28;20052;-62
2022/07/22 06:35:50;;;;;;;0.00;0.00;;;;;;;24.00;66.73;98145.22;5098746;28;20400;-63
2022/07/22 06:38:21;;;;;;;0.00;0.00;;;;;;;23.93;66.52;98138.94;5098714;28;20068;-62
2022/07/22 06:41:08;;;;;;;0.00;0.00;;;;;;;24.00;66.89;98142.53;5100159;28;20051;-62
2022/07/22 06:44:11;;;;;;;0.00;0.00;;;;;;;24.32;66.46;98150.38;5099882;28;20385;-62
2022/07/22 06:46:58;;;;;;;0.00;0.00;;;;;;;24.17;65.98;98156.69;5098862;28;20036;-62
2022/07/22 06:49:27;;;;;;;0.00;0.00;;;;;;;24.27;66.71;98147.38;5098776;28;20055;-63
2022/07/22 06:51:54;;;;;;;0.00;0.00;;;;;;;24.48;66.50;98158.28;5098729;28;20044;-63
2022/07/22 06:54:24;;;;;;;0.00;0.00;;;;;;;24.52;65.50;98158.78;5098830;28;20341;-62
2022/07/22 06:56:55;;;;;;;0.00;0.00;;;;;;;24.67;66.02;98154.25;5098601;28;20044;-63
2022/07/22 06:59:28;;;;;;;0.00;0.00;;;;;;;24.75;65.38;98163.09;5098945;28;20048;-63
2022/07/22 07:01:56;;;;;;;0.00;0.00;;;;;;;24.72;64.93;98162.59;5097514;28;20113;-64
2022/07/22 07:04:24;;;;;;;0.00;0.00;;;;;;;24.74;64.91;98161.44;5095603;28;20059;-63
2022/07/22 07:06:51;;;;;;;0.00;0.00;;;;;;;24.92;65.27;98185.31;5097406;28;20044;-62
2022/07/22 07:09:35;;;;;;;;;;;;;;;25.02;64.26;98178.63;5079436;28;20050;-62
2022/07/22 07:12:19;;;;;;;0.00;0.00;;;;;;;24.73;64.62;98180.44;5073010;28;19920;-62
2022/07/22 07:15:25;;;;;;;0.00;0.00;;;;;;;24.75;65.01;98179.25;5082759;28;20178;-63
2022/07/22 07:17:56;;;;;;;0.00;0.00;;;;;;;24.86;64.57;98186.00;5081119;28;20036;-62
2022/07/22 07:20:24;;;;;;;0.00;0.00;;;;;;;24.85;64.92;98169.00;5077853;28;20040;-63
2022/07/22 07:22:52;;;;;;;0.00;0.00;;;;;;;25.04;64.80;98173.91;5073353;28;20040;-63
2022/07/22 07:25:22;;;;;;;0.00;0.00;;;;;;;25.10;63.50;98166.94;5097638;28;20070;-63
2022/07/22 07:27:50;;;;;;;0.00;0.00;;;;;;;25.26;64.06;98164.91;5098111;28;20052;-63
2022/07/22 07:30:20;;;;;;;0.00;0.00;;;;;;;25.37;62.94;98163.56;5090288;28;20436;-63
2022/07/22 07:32:48;;;;;;;0.00;0.00;;;;;;;25.48;62.49;98169.31;5077650;28;20424;-62
2022/07/22 07:35:16;;;;;;;0.00;0.00;;;;;;;25.55;62.70;98172.94;5064026;28;20119;-63
2022/07/22 07:37:43;;;;;;;0.00;0.00;;;;;;;25.65;62.58;98169.97;5078113;28;20047;-63
2022/07/22 07:40:11;;;;;;;0.00;0.00;;;;;;;25.60;61.83;98175.91;5094459;28;20340;-62
2022/07/22 07:42:40;;;;;;;0.00;0.00;;;;;;;25.68;61.43;98164.16;5097739;28;20097;-63
2022/07/22 07:45:09;;;;;;;0.00;0.00;;;;;;;25.91;61.48;98160.28;5093886;28;20072;-62
2022/07/22 07:47:40;;;;;;;0.00;0.00;;;;;;;26.22;60.76;98166.25;5061172;28;20044;-62
2022/07/22 07:50:09;;;;;;;0.00;0.00;;;;;;;26.42;59.95;98169.94;5060762;28;20037;-63
2022/07/22 07:52:39;;;;;;;0.00;0.00;;;;;;;26.36;59.90;98149.13;5060702;28;20044;-62
2022/07/22 07:55:08;;;;;;;0.00;0.00;;;;;;;26.40;59.33;98154.97;5060357;28;20502;-63
2022/07/22 07:57:36;;;;;;;0.00;0.00;;;;;;;26.59;58.43;98157.84;5062552;28;20060;-63
2022/07/22 08:00:12;;;;;;;0.00;0.00;;;;;;;26.21;59.88;98161.88;5077418;28;20044;-62
2022/07/22 08:02:44;;;;;;;0.00;0.00;;;;;;;26.23;59.34;98183.25;5060512;28;20044;-63
2022/07/22 08:05:12;;;;;;;0.00;0.00;;;;;;;26.38;59.07;98176.75;5060332;28;20076;-62
2022/07/22 08:07:40;;;;;;;0.00;0.00;;;;;;;26.48;59.12;98181.81;5060599;28;20044;-63
2022/07/22 08:10:09;;;;;;;0.00;0.00;;;;;;;26.51;59.95;98178.75;5060509;28;20051;-62
2022/07/22 08:13:05;;;;;;;0.00;0.00;;;;;;;26.49;60.36;98175.38;5060024;28;20048;-63
2022/07/22 08:16:08;;;;;;;0.00;0.00;;;;;;;26.48;61.06;98173.72;5073572;28;20059;-62
2022/07/22 08:18:37;;;;;;;0.00;0.00;;;;;;;26.22;59.60;98165.41;5077798;28;20040;-63
2022/07/22 08:21:05;;;;;;;0.00;0.00;;;;;;;26.07;59.89;98167.31;5060352;28;20131;-62
2022/07/22 08:23:52;;;;;;;0.00;0.00;;;;;;;25.92;60.14;98170.06;5060246;28;20331;-62
2022/07/22 08:26:19;;;;;;;0.00;0.00;;;;;;;25.78;60.45;98173.66;5077349;28;20055;-62
2022/07/22 08:28:47;;;;;;;0.00;0.00;;;;;;;25.69;61.72;98187.44;5060089;28;20396;-62
2022/07/22 08:31:17;;;;;;;0.00;0.00;;;;;;;25.70;61.59;98189.94;5077473;28;20424;-62
2022/07/22 08:33:48;;;;;;;0.00;0.00;;;;;;;25.77;62.76;98193.50;5059929;28;20070;-63
2022/07/22 08:36:17;;;;;;;0.00;0.00;;;;;;;25.77;61.32;98193.50;5059830;28;20053;-63
2022/07/22 08:38:45;;;;;;;0.00;0.00;;;;;;;25.83;62.31;98198.16;5059230;28;20052;-62
2022/07/22 08:41:15;;;;;;;0.00;0.00;;;;;;;26.24;61.64;98201.94;5059733;28;20094;-63
2022/07/22 08:43:44;;;;;;;0.00;0.00;;;;;;;26.50;61.10;98207.59;5059739;28;20058;-63
2022/07/22 08:46:12;;;;;;;0.00;0.00;;;;;;;26.64;59.67;98200.44;5059738;28;20059;-62
2022/07/22 08:49:06;;;;;;;0.00;0.00;;;;;;;26.87;59.64;98203.78;5066475;28;20052;-62
2022/07/22 08:52:01;;;;;;;0.00;0.00;;;;;;;27.06;58.48;98208.47;5071777;28;20133;-62
2022/07/22 08:54:34;;;;;;;0.00;0.00;;;;;;;27.19;58.58;98207.72;5059684;28;20382;-62
2022/07/22 08:57:02;;;;;;;0.00;0.00;;;;;;;27.36;59.02;98203.69;5059399;28;20102;-62
2022/07/22 08:59:53;;;;;;;0.00;0.00;;;;;;;27.51;58.16;98202.53;5062424;28;20060;-63
2022/07/22 09:02:25;;;;;;;0.00;0.00;;;;;;;27.43;58.36;98200.00;5058718;28;20082;-62
2022/07/22 09:04:58;;;;;;;0.00;0.00;;;;;;;27.62;59.12;98199.25;5059406;28;20059;-63
2022/07/22 09:07:31;;;;;;;0.00;0.00;;;;;;;27.80;57.67;98207.63;5059448;28;20044;-62
2022/07/22 09:10:08;;;;;;;0.00;0.00;;;;;;;27.91;58.13;98198.13;5059334;28;20060;-63
2022/07/22 09:12:58;;;;;;;0.00;0.00;;;;;;;28.15;58.48;98190.28;5076868;28;20121;-62
2022/07/22 09:15:49;;;;;;;0.00;0.00;;;;;;;28.43;57.73;98187.44;5077241;28;20048;-63
2022/07/22 09:18:54;;;;;;;0.00;0.00;;;;;;;28.52;55.81;98188.91;5047468;28;20127;-62
2022/07/22 09:21:34;;;;;;;0.00;0.00;;;;;;;28.62;56.18;98187.44;5076796;28;20040;-62
2022/07/22 09:24:31;;;;;;;0.00;0.00;;;;;;;28.87;55.49;98188.47;5059318;28;20455;-61
2022/07/22 09:27:24;;;;;;;0.00;0.00;;;;;;;29.05;56.23;98193.25;5058681;28;20052;-62
2022/07/22 09:30:17;;;;;;;0.00;0.00;;;;;;;29.17;55.60;98191.59;5068661;28;20049;-63
2022/07/22 09:32:56;;;;;;;0.00;0.00;;;;;;;29.44;54.30;98183.16;5059205;28;20044;-63
2022/07/22 09:35:37;;;;;;;;;;;;;;;29.44;54.85;98183.16;5076892;28;20045;-62
2022/07/22 09:38:08;;;;;;;0.00;0.00;;;;;;;29.23;53.21;98185.31;5058810;28;19959;-62
2022/07/22 09:40:38;;;;;;;0.00;0.00;;;;;;;29.27;54.25;98183.84;5058853;28;20072;-63
2022/07/22 09:43:11;;;;;;;0.00;0.00;;;;;;;29.31;53.24;98190.50;5057628;28;20048;-63
2022/07/22 09:45:47;;;;;;;0.00;0.00;;;;;;;29.38;52.53;98186.72;5075205;28;20040;-62
2022/07/22 09:48:15;;;;;;;0.00;0.00;;;;;;;29.57;53.12;98186.91;5078397;28;20044;-62
2022/07/22 09:50:57;;;;;;;0.00;0.00;;;;;;;29.41;52.76;98185.47;5100838;28;20130;-63
2022/07/22 09:53:37;;;;;;;0.00;0.00;;;;;;;29.39;53.75;98190.25;5083227;28;20396;-63
2022/07/22 09:56:11;;;;;;;0.00;0.00;;;;;;;29.60;53.26;98184.59;5082917;28;20048;-62
2022/07/22 09:58:40;;;;;;;0.00;0.00;;;;;;;29.73;54.58;98187.25;5082890;28;20036;-63
2022/07/22 10:01:15;;;;;;;0.00;0.00;;;;;;;29.78;54.31;98182.00;5082852;28;20048;-62
2022/07/22 10:03:49;;;;;;;0.00;0.00;;;;;;;29.77;53.54;98187.66;5082991;28;20049;-63
2022/07/22 10:06:20;;;;;;;0.00;0.00;;;;;;;29.65;53.62;98183.94;5082275;28;20055;-63
2022/07/22 10:08:56;;;;;;;0.00;0.00;;;;;;;29.50;52.96;98176.06;5081457;28;20075;-62
2022/07/22 10:11:25;;;;;;;0.00;0.00;;;;;;;29.54;54.40;98185.47;5100070;28;20044;-63
2022/07/22 10:13:54;;;;;;;0.00;0.00;;;;;;;29.46;53.78;98186.50;5078632;28;20044;-62
2022/07/22 10:16:23;;;;;;;0.00;0.00;;;;;;;29.59;53.19;98180.22;5070231;28;20083;-63
2022/07/22 10:21:34;;;;;;;0.00;0.00;;;;;;;29.18;51.97;98177.00;5060717;28;20068;-62
2022/07/22 10:24:11;;;;;;;0.00;0.00;;;;;;;29.21;53.05;98166.53;5077051;28;20056;-59
2022/07/22 10:27:03;;;;;;;0.00;0.00;;;;;;;29.23;51.64;98178.03;5056218;28;20095;-59
2022/07/22 10:29:40;;;;;;;0.00;0.00;;;;;;;29.17;51.25;98172.63;5059278;28;20329;-60
2022/07/22 10:32:26;;;;;;;0.00;0.00;;;;;;;29.20;50.97;98175.72;5057324;28;20047;-60
2022/07/22 10:35:24;;;;;;;0.00;0.00;;;;;;;29.54;52.46;98171.91;5071753;28;20441;-60
2022/07/22 10:37:57;;;;;;;0.00;0.00;;;;;;;29.65;51.89;98163.09;4981583;28;20046;-59
2022/07/22 10:40:28;;;;;;;0.00;0.00;;;;;;;29.79;52.04;98161.16;4997776;28;20458;-59
2022/07/22 10:43:18;;;;;;;0.00;0.00;;;;;;;29.71;51.58;98169.53;4997855;28;20077;-60
2022/07/22 10:45:48;;;;;;;0.00;0.00;;;;;;;29.64;52.02;98163.31;4981037;28;20065;-59
2022/07/22 10:48:19;;;;;;;0.00;0.00;;;;;;;29.76;52.09;98157.00;4978284;28;20074;-59
2022/07/22 10:51:09;;;;;;;0.00;0.00;;;;;;;29.77;50.97;98164.06;4978577;28;20194;-59
2022/07/22 10:53:59;;;;;;;0.00;0.00;;;;;;;29.63;50.16;98161.63;4978497;28;20058;-59
2022/07/22 10:56:30;;;;;;;0.00;0.00;;;;;;;29.69;49.69;98169.75;4974109;28;20051;-60
2022/07/22 10:59:00;;;;;;;0.00;0.00;;;;;;;29.60;50.26;98168.31;4978262;28;20109;-60
2022/07/22 11:01:30;;;;;;;0.00;0.00;;;;;;;29.69;50.49;98155.34;4976990;28;20439;-60
2022/07/22 11:04:10;;;;;;;0.00;0.00;;;;;;;29.84;50.46;98154.03;4978319;28;20141;-60
2022/07/22 11:06:38;;;;;;;0.00;0.00;;;;;;;29.96;51.88;98160.41;4977822;28;20050;-60
2022/07/22 11:09:09;;;;;;;0.00;0.00;;;;;;;30.03;50.80;98160.41;4978099;28;20101;-60
2022/07/22 11:11:44;;;;;;;0.00;0.00;;;;;;;30.06;49.99;98160.81;5005445;28;20111;-59
2022/07/22 11:14:24;;;;;;;0.00;0.00;;;;;;;30.16;48.75;98152.19;5057981;28;20331;-59
2022/07/22 11:16:52;;;;;;;0.00;0.00;;;;;;;30.23;49.46;98151.06;5058098;28;20090;-59
2022/07/22 11:19:22;;;;;;;0.00;0.00;;;;;;;30.38;49.45;98148.06;5057902;28;20044;-60
2022/07/22 11:21:53;;;;;;;0.00;0.00;;;;;;;30.45;48.57;98146.13;5058368;28;20076;-60
2022/07/22 11:24:22;;;;;;;0.00;0.00;;;;;;;30.44;48.23;98142.56;5057957;28;20053;-60
2022/07/22 11:26:51;;;;;;;0.00;0.00;;;;;;;30.51;49.28;98134.34;5061941;28;20052;-59
2022/07/22 11:29:26;;;;;;;0.00;0.00;;;;;;;30.42;48.85;98136.50;5078548;28;20043;-59
2022/07/22 11:31:55;;;;;;;0.00;0.00;;;;;;;30.25;48.86;98140.84;5078106;28;20036;-59
2022/07/22 11:34:23;;;;;;;0.00;0.00;;;;;;;30.37;49.02;98136.34;5078335;28;20045;-60
2022/07/22 11:36:52;;;;;;;0.00;0.00;;;;;;;30.33;49.41;98134.28;5077657;28;20086;-59
2022/07/22 11:39:21;;;;;;;0.00;0.00;;;;;;;30.33;49.89;98135.13;5077863;28;20428;-60
2022/07/22 11:41:51;;;;;;;0.00;0.00;;;;;;;30.32;49.31;98138.06;5075914;28;20344;-60
2022/07/22 11:44:20;;;;;;;0.00;0.00;;;;;;;30.34;49.86;98136.78;5076439;28;20432;-60
2022/07/22 11:46:48;;;;;;;0.00;0.00;;;;;;;30.44;49.65;98145.28;5076326;28;20103;-60
2022/07/22 11:49:19;;;;;;;0.00;0.00;;;;;;;30.36;49.98;98129.25;5082714;28;20060;-59
2022/07/22 11:51:46;;;;;;;0.00;0.00;;;;;;;30.52;50.04;98128.72;5093185;28;20047;-60
2022/07/22 11:54:15;;;;;;;0.00;0.00;;;;;;;30.68;49.30;98130.88;5085674;28;20040;-59
2022/07/22 11:56:42;;;;;;;0.00;0.00;;;;;;;30.86;49.32;98127.38;5076578;28;20386;-58